Flight Track Log - Related Links

Times and Time Zones

All times are in EDT time to prevent confusion due to time zone crossing. See the N91107 flight status page for this flight to view local times or setup timezone preferences in your user account.

Time Position Orientation Groundspeed Altitude Reporting Facility
EDT Latitude Longitude Course Direction KTS MPH feet Rate Location/Type
Tue 05:13:43 PM 42.2289 -83.3453 248° West 91 105 1,600  Level Cleveland Center
Tue 05:14:44 PM 42.2175 -83.3842 248° West 118 136 2,500 443 Climbing Cleveland Center
Tue 05:15:45 PM 42.1997 -83.4283 241° Southwest 136 157 2,500  Level Cleveland Center
Tue 05:16:45 PM 42.1883 -83.4753 252° West 143 165 2,500  Level Cleveland Center
Tue 05:17:53 PM 42.1806 -83.5339 260° West 141 162 2,500  Level Cleveland Center
Tue 05:18:53 PM 42.1708 -83.5839 255° West 141 162 2,500  Level Cleveland Center
Tue 05:19:54 PM 42.1550 -83.6336 247° West 147 169 2,500 -49 Level Cleveland Center
Tue 05:20:55 PM 42.1492 -83.6919 262° West 133 153 2,400  Descending Cleveland Center
Tue 05:21:56 PM 42.1417 -83.7392 258° West 133 153 2,500  Climbing Cleveland Center
Tue 05:22:57 PM 42.1300 -83.7892 253° West 139 160 2,400 -49 Descending Cleveland Center
Tue 05:23:58 PM 42.1222 -83.8419 259° West 141 162 2,400 Level Cleveland Center
Tue 05:25:00 PM 42.1087 -83.8999 253° West  Level FlightAware Approximate
Tue 05:32:00 PM 42.0239 -84.2951 256° West  Level FlightAware Approximate
Tue 05:33:00 PM 42.0136 -84.3521 256° West  Level FlightAware Approximate
Tue 05:34:00 PM 42.0033 -84.4091 256° West  Level FlightAware Approximate
Tue 05:35:00 PM 41.9929 -84.4661 256° West  Level FlightAware Approximate
Tue 05:36:00 PM 41.9825 -84.5231 256° West  Level FlightAware Approximate
Tue 05:37:00 PM 41.9721 -84.5800 256° West  Level FlightAware Approximate
Tue 05:38:00 PM 41.9616 -84.6370 256° West  Level FlightAware Approximate
Tue 05:39:00 PM 41.9511 -84.6939 256° West  Level FlightAware Approximate
Tue 05:40:00 PM 41.9405 -84.7508 256° West  Level FlightAware Approximate
Tue 05:41:00 PM 41.9299 -84.8076 256° West  Level FlightAware Approximate
Tue 05:41:23 PM 41.9611 -84.6953 256° West 153 176 2,500  Level Chicago Center
Tue 05:42:00 PM 41.9192 -84.8645 256° West  Level FlightAware Approximate
Tue 05:42:25 PM 41.9519 -84.7442 256° West 138 159 2,500  Level Chicago Center
Tue 05:43:00 PM 41.9086 -84.9213 256° West  Level FlightAware Approximate
Tue 05:43:28 PM 41.9431 -84.7925 256° West 136 157 2,500  Level Chicago Center
Tue 05:44:00 PM 41.8979 -84.9781 256° West  Level FlightAware Approximate
Tue 05:44:30 PM 41.9297 -84.8539 254° West 139 160 2,500  Level Chicago Center
Tue 05:45:00 PM 41.8871 -85.0349 256° West  Level FlightAware Approximate
Tue 05:45:32 PM 41.9200 -84.9031 255° West 138 159 2,400  Level Chicago Center
Tue 05:46:00 PM 41.8763 -85.0916 256° West  Level FlightAware Approximate
Tue 05:46:34 PM 41.9108 -84.9531 256° West 138 159 2,500  Level Chicago Center
Tue 05:47:36 PM 41.9003 -85.0017 254° West 138 159 2,500  Level Chicago Center
Tue 05:48:38 PM 41.8914 -85.0511 256° West 137 158 2,500  Level Chicago Center
Tue 05:49:40 PM 41.8797 -85.1103 255° West 137 158 2,500  Level Chicago Center
Tue 05:50:42 PM 41.8708 -85.1506 254° West 138 159 2,500  Level Chicago Center

Login

Don't have an account? Register now (free) for customized features, flight alerts, and more!